USRR

Details ICAO USRR (SGC)
Name SURGUT
Region Russia
Timezone Asia/Yekaterinburg (UTC+5.0)
Plans Departing 85
Arriving 72
Stats Elevation 200 ft / 61 m (AMSL)
Location 61.343693° 73.401842°
Runways 1
Magnetic Variation 17.101° E
Sunrise 2017-12-18 04:21:31 UTC / 2017-12-18 09:21:31 Local
Sunset 2017-12-18 09:47:00 UTC / 2017-12-18 14:47:00 Local
Advertisement - Login to hide

Runways

ID Width Length Bearing (true) Bearing (mag) Surface Threshold Offset Overrun Length
07 148 ft / 45 m 9,112 ft / 2,778 m 89.72° 72.62° Asphalt 0 ft / 0 m 165 ft / 50 m
25 148 ft / 45 m 9,112 ft / 2,778 m 269.76° 252.66° Asphalt 0 ft / 0 m 165 ft / 50 m

Map

Weather


0- 5 10 15 20 25 30 35+ Temperature / ° C

Clouds and Precipitation
Forecast for 2017-12-18 06:00 UTC. Updated 2 hours ago

Ground ~20,000 ft ~40,000 ft Winds

METAR

USRR 180300Z 21005MPS 7000 NSC M09/M18 Q1028 R25/32//50 NOSIG RMK QFE765

TAF

TAF TAF USRR 180155Z 1803/1903 23007G14MPS 9999 SCT030 TEMPO 1806/1815 21009G16MPS

Frequencies

Recorded 124.80 MHz ATIS
Tower 120.80 MHz START
Ground 121.80 MHz TAXIING
Approach 120.30 MHz KRUG
Warning: Do not use this data for real-world aviation or navigation. No guarantee of current accuracy is given.